DSNT2: Lake Texoma, Denison Dam

Data processed at Thu Jan 23 2020 21:55


All information presented herein is the property of the government of the United States of America and may be revised or deleted at any time without prior notice.
Dissemination of this information without the expressed written consent of the Public Affairs Office, Tulsa District U.S. Army Corps of Engineers is strictly prohibited.
These data are gathered electronically and, as presented, have not undergone any form of quality control. These data are not guaranteed to be valid or correct.
Go to home page.
Go to station list.
Go to home page.

Upstream stations:

Downstream station:
Previous Day
Next Day
Current Day
    
SHEF ID:       DSNT2     Lake Texoma
STATION TYPE:  Reservoir
Flood Pool:  Bottom =   615.99, Top =   640.00

               PRECIP PRECIP(A) ELEVATION   STORAGE   TW-ELEV    INFLOW   RELEASE  AIR-TEMP  WIND-DIRWIND-SPEED REL-HUMID SOLAR-RAD   VOLTAGE  BAT-LOAD
                   in        in        ft     ac-ft        ft       cfs       cfs         F       deg       mph         %      W/m2      volt      volt
              Ccp-Rev   Ccp-Rev   Ccp-Rev   Ccp-Rev   Ccp-Rev  Rev-Regi  Rev-Regi   Ccp-Rev   Ccp-Rev   Ccp-Rev   Ccp-Rev   Ccp-Rev   Ccp-Rev   Ccp-Rev
(US/Central)
01/23 00:00      0.09      ----    618.21   2581205    507.61     11209     17125     39.40    105.60      6.90    100.06      0.00     12.71     12.40
01/23 01:00      0.08      ----    618.20   2580408    507.60      9283     17124     39.38     67.80      3.50    100.06      0.00     12.71     12.40
01/23 02:00      0.00      ----    618.19   2579611    507.61     11188     17124     38.91     42.00      4.40    100.06      0.00     12.70     12.40
01/23 03:00      0.00      ----    618.18   2578815    507.59      9282     17023     38.80     59.30      4.60    100.06      0.00     12.70     12.40
01/23 04:00      0.00      ----    618.18   2578815    507.63      9299     17123     39.11     54.70      3.20    100.06      0.00     12.70     12.38
01/23 05:00      0.00      ----    618.17   2578018    507.61     11244     17122     38.88     47.70      3.90    100.06      0.00     12.69     12.37
01/23 06:00      0.00      ----    618.16   2577221    507.63     11281     17122     38.68     16.50      5.60    100.06      0.00     12.69     12.38
01/23 07:00      0.00      ----    618.16   2577221    507.62     11320     17121     38.44     25.80      4.70    100.06      0.00     12.69     12.38
01/23 08:00      0.00      ----    618.15   2576424    507.62     11337     17121     38.37     21.10      5.40    100.06      0.00     12.69     12.37
01/23 09:00      0.00      ----    618.15   2576424    507.61     11337     17121     39.40    344.10      5.50    100.07     12.00     12.84     12.37
01/23 10:00      0.00      ----    618.14   2575628    507.60     11336     17120     40.51    330.30      7.40    100.08     71.70     13.54     12.54
01/23 11:00      0.01      ----    618.13   2574831    507.59     11336     17120     42.13    318.50     10.80     99.47    198.40     13.95     13.40
01/23 12:00      0.00      ----    618.13   2574831    507.60     11335     17119     44.31    331.60     11.00     93.06    255.10     13.58     13.62
01/23 13:00      0.00      ----    618.12   2574034    507.61     11335     17119     45.99    322.90     10.10     89.68    484.50     13.55     13.28
01/23 14:00      0.00      ----    618.12   2574034    507.61     11335     17119     48.34    312.00     10.60     85.63    453.80     14.33     13.30
01/23 15:00      0.00      ----    618.11   2573238    507.60      9406     17118     50.22    311.10     10.00     78.38    419.50     13.56     13.29
01/23 16:00      0.00      ----    618.10   2572441    507.59     11354     17118     51.98    308.90     12.00     68.94    195.10     13.70     13.26
01/23 17:00      0.00      ----    618.09   2571644    507.59     11353     17117     52.34    304.50     12.50     60.75     83.50     13.52     13.28
01/23 18:00      0.00      ----    618.09   2571644    507.61     11373     17217     51.51    284.20      7.70     63.07     18.30     13.24     13.17
01/23 19:00      0.00      ----    618.09   2571644    507.59     11392     17117     50.18    274.60      7.60     59.59      0.00     13.03     12.89
01/23 20:00      0.00      ----    618.08   2570848    507.59     11412     17216     50.14    275.10     12.00     54.32      0.00     12.96     12.71
01/23 21:00      0.00      ----    618.07   2570051    507.58      9484     17216     48.40    264.50     13.30     59.83      0.00     12.93     12.63
01/23 22:00      ----      ----      ----      ----      ----      ----      ----      ----      ----      ----      ----      ----      ----      ----
01/23 23:00      ----      ----      ----      ----      ----      ----      ----      ----      ----      ----      ----      ----      ----      ----